createdAt,value
2016-09-27T03:00:39.228Z,1025.53
2016-09-27T03:01:57.778Z,1025.55
2016-09-27T03:02:23.345Z,1025.56
2016-09-27T03:02:48.952Z,1025.54
2016-09-27T03:03:14.507Z,1025.55
2016-09-27T03:03:40.064Z,1025.57
2016-09-27T03:04:05.771Z,1025.59
2016-09-27T03:04:31.320Z,1025.59
2016-09-27T03:04:56.878Z,1025.59
2016-09-27T03:05:22.544Z,1025.56
2016-09-27T03:05:48.112Z,1025.62
2016-09-27T03:06:13.676Z,1025.62
2016-09-27T03:06:39.239Z,1025.62
2016-09-27T03:07:04.848Z,1025.62
2016-09-27T03:07:30.392Z,1025.66
2016-09-27T03:07:55.968Z,1025.64
2016-09-27T03:08:21.528Z,1025.62
2016-09-27T03:08:47.085Z,1025.67
2016-09-27T03:10:00.564Z,1025.66
2016-09-27T03:10:26.130Z,1025.67
2016-09-27T03:10:51.687Z,1025.65
2016-09-27T03:11:17.370Z,1025.67
2016-09-27T03:11:43.003Z,1025.65
2016-09-27T03:12:08.560Z,1025.66
2016-09-27T03:12:34.160Z,1025.69
2016-09-27T03:12:59.744Z,1025.7
2016-09-27T03:14:08.282Z,1025.66
2016-09-27T03:14:33.844Z,1025.7
2016-09-27T03:14:59.418Z,1025.66
2016-09-27T03:15:24.986Z,1025.67
2016-09-27T03:15:50.529Z,1025.7
2016-09-27T03:16:16.077Z,1025.7
2016-09-27T03:16:41.634Z,1025.69
2016-09-27T03:17:07.204Z,1025.75
2016-09-27T03:17:32.773Z,1025.72
2016-09-27T03:17:58.343Z,1025.73
2016-09-27T03:18:23.910Z,1025.7
2016-09-27T03:18:49.471Z,1025.73
2016-09-27T03:19:15.102Z,1025.69
2016-09-27T03:19:40.688Z,1025.74
2016-09-27T03:20:06.252Z,1025.76
2016-09-27T03:20:31.809Z,1025.72
2016-09-27T03:20:57.366Z,1025.73
2016-09-27T03:21:22.916Z,1025.72
2016-09-27T03:21:48.497Z,1025.7
2016-09-27T03:22:14.052Z,1025.69
2016-09-27T03:22:39.591Z,1025.69
2016-09-27T03:23:05.345Z,1025.67
2016-09-27T03:23:30.887Z,1025.7
2016-09-27T03:23:56.484Z,1025.7
2016-09-27T03:24:22.115Z,1025.69
2016-09-27T03:24:47.670Z,1025.67
2016-09-27T03:25:13.230Z,1025.71
2016-09-27T03:25:38.812Z,1025.66
2016-09-27T03:26:04.372Z,1025.66
2016-09-27T03:26:29.952Z,1025.66
2016-09-27T03:26:55.505Z,1025.7
2016-09-27T03:27:21.123Z,1025.65
2016-09-27T03:27:46.679Z,1025.7
2016-09-27T03:28:12.236Z,1025.67
2016-09-27T03:28:37.802Z,1025.64
2016-09-27T03:29:03.383Z,1025.7
2016-09-27T03:29:28.967Z,1025.66
2016-09-27T03:29:54.526Z,1025.71
2016-09-27T03:31:02.856Z,1025.65
2016-09-27T03:31:28.431Z,1025.65
2016-09-27T03:31:53.976Z,1025.63
2016-09-27T03:32:19.547Z,1025.67
2016-09-27T03:32:45.110Z,1025.68
2016-09-27T03:33:10.824Z,1025.66
2016-09-27T03:33:36.410Z,1025.65
2016-09-27T03:34:02.001Z,1025.66
2016-09-27T03:34:27.543Z,1025.65
2016-09-27T03:34:53.108Z,1025.7
2016-09-27T03:35:18.675Z,1025.68
2016-09-27T03:35:44.254Z,1025.63
2016-09-27T03:36:09.820Z,1025.64
2016-09-27T03:36:35.401Z,1025.66
2016-09-27T03:37:01.040Z,1025.66
2016-09-27T03:37:26.598Z,1025.67
2016-09-27T03:37:52.159Z,1025.65
2016-09-27T03:38:17.697Z,1025.67
2016-09-27T03:38:43.273Z,1025.64
2016-09-27T03:39:08.812Z,1025.66
2016-09-27T03:39:34.387Z,1025.59
2016-09-27T03:39:59.956Z,1025.64
2016-09-27T03:40:25.530Z,1025.64
2016-09-27T03:41:33.901Z,1025.63
2016-09-27T03:41:59.444Z,1025.63
2016-09-27T03:42:25.018Z,1025.61
2016-09-27T03:42:50.588Z,1025.59
2016-09-27T03:43:16.158Z,1025.64
2016-09-27T03:43:41.726Z,1025.64
2016-09-27T03:44:07.308Z,1025.67
2016-09-27T03:44:32.866Z,1025.68
2016-09-27T03:44:58.439Z,1025.65
2016-09-27T03:45:24.040Z,1025.65
2016-09-27T03:45:49.604Z,1025.67
2016-09-27T03:46:15.200Z,1025.65
2016-09-27T03:46:40.782Z,1025.64
2016-09-27T03:47:06.335Z,1025.67
2016-09-27T03:47:31.900Z,1025.67
2016-09-27T03:47:57.639Z,1025.69
2016-09-27T03:48:23.217Z,1025.67
2016-09-27T03:48:48.782Z,1025.64
2016-09-27T03:49:14.345Z,1025.74
2016-09-27T03:49:39.902Z,1025.72
2016-09-27T03:50:05.485Z,1025.75
2016-09-27T03:50:31.022Z,1025.71
2016-09-27T03:50:56.589Z,1025.7
2016-09-27T03:51:22.156Z,1025.75
2016-09-27T03:51:47.795Z,1025.77
2016-09-27T03:52:13.348Z,1025.74
2016-09-27T03:52:38.920Z,1025.75
2016-09-27T03:53:04.561Z,1025.79
2016-09-27T03:53:30.120Z,1025.73
2016-09-27T03:53:55.681Z,1025.78
2016-09-27T03:54:21.234Z,1025.72
2016-09-27T03:54:46.795Z,1025.76
2016-09-27T03:55:12.363Z,1025.76
2016-09-27T03:55:37.925Z,1025.79
2016-09-27T03:56:03.487Z,1025.81
2016-09-27T03:56:29.053Z,1025.75
2016-09-27T03:56:54.607Z,1025.75
2016-09-27T03:57:20.172Z,1025.74
2016-09-27T03:57:45.743Z,1025.81
2016-09-27T03:58:11.296Z,1025.74
2016-09-27T03:58:36.865Z,1025.76
2016-09-27T03:59:02.414Z,1025.76
2016-09-27T03:59:27.987Z,1025.73
2016-09-27T03:59:53.592Z,1025.74
2016-09-27T04:00:19.161Z,1025.78
2016-09-27T04:00:44.731Z,1025.77
2016-09-27T04:01:10.296Z,1025.76
2016-09-27T04:01:35.861Z,1025.76
2016-09-27T04:02:01.437Z,1025.77
2016-09-27T04:02:26.995Z,1025.73
2016-09-27T04:02:52.603Z,1025.75
2016-09-27T04:03:18.262Z,1025.77
2016-09-27T04:03:43.831Z,1025.78
2016-09-27T04:04:09.389Z,1025.77
2016-09-27T04:05:17.881Z,1025.76
2016-09-27T04:05:43.517Z,1025.79
2016-09-27T04:06:09.069Z,1025.81
2016-09-27T04:06:34.654Z,1025.78
2016-09-27T04:07:00.205Z,1025.82
2016-09-27T04:07:25.790Z,1025.79
2016-09-27T04:07:51.351Z,1025.85
2016-09-27T04:08:16.898Z,1025.82
2016-09-27T04:08:42.441Z,1025.85
2016-09-27T04:09:08.007Z,1025.85
2016-09-27T04:09:33.715Z,1025.83
2016-09-27T04:09:59.318Z,1025.82
2016-09-27T04:10:24.865Z,1025.82
2016-09-27T04:10:50.443Z,1025.81
2016-09-27T04:11:16.026Z,1025.79
2016-09-27T04:11:41.598Z,1025.83
2016-09-27T04:12:07.163Z,1025.83
2016-09-27T04:12:32.711Z,1025.81
2016-09-27T04:12:58.275Z,1025.83
2016-09-27T04:13:23.823Z,1025.83
2016-09-27T04:13:49.382Z,1025.84
2016-09-27T04:14:14.955Z,1025.82
2016-09-27T04:14:40.510Z,1025.83
2016-09-27T04:15:06.256Z,1025.81
2016-09-27T04:15:31.801Z,1025.81
2016-09-27T04:15:57.360Z,1025.8
2016-09-27T04:16:22.902Z,1025.83
2016-09-27T04:16:48.590Z,1025.81
2016-09-27T04:17:14.129Z,1025.81
2016-09-27T04:17:39.685Z,1025.86
2016-09-27T04:18:05.258Z,1025.81
2016-09-27T04:19:03.779Z,1025.84
2016-09-27T04:19:29.346Z,1025.85
2016-09-27T04:19:54.917Z,1025.85
2016-09-27T04:20:20.466Z,1025.86
2016-09-27T04:20:46.033Z,1025.86
2016-09-27T04:21:11.608Z,1025.85
2016-09-27T04:21:37.242Z,1025.89
2016-09-27T04:22:02.798Z,1025.87
2016-09-27T04:22:28.362Z,1025.9
2016-09-27T04:22:53.915Z,1025.88
2016-09-27T04:23:19.470Z,1025.87
2016-09-27T04:23:45.036Z,1025.88
2016-09-27T04:24:10.589Z,1025.91
2016-09-27T04:24:36.141Z,1025.91
2016-09-27T04:25:01.675Z,1025.89
2016-09-27T04:25:27.206Z,1025.89
2016-09-27T04:25:52.752Z,1025.86
2016-09-27T04:26:18.308Z,1025.9
2016-09-27T04:26:43.839Z,1025.87
2016-09-27T04:27:09.402Z,1025.86
2016-09-27T04:27:34.973Z,1025.81
2016-09-27T04:28:00.540Z,1025.87
2016-09-27T04:28:26.112Z,1025.88
2016-09-27T04:28:51.653Z,1025.86
2016-09-27T04:29:17.209Z,1025.89
2016-09-27T04:29:42.754Z,1025.86
2016-09-27T04:30:08.278Z,1025.92
2016-09-27T04:30:33.892Z,1025.91
2016-09-27T04:30:59.428Z,1025.9
2016-09-27T04:31:24.966Z,1025.9
2016-09-27T04:31:50.776Z,1025.93
2016-09-27T04:32:16.335Z,1025.89
2016-09-27T04:32:41.885Z,1025.93
2016-09-27T04:33:07.480Z,1025.94
2016-09-27T04:33:33.005Z,1025.96
2016-09-27T04:33:58.542Z,1025.97
2016-09-27T04:34:24.093Z,1025.94
2016-09-27T04:34:49.637Z,1025.95
2016-09-27T04:35:15.249Z,1025.93
2016-09-27T04:35:40.791Z,1025.95
2016-09-27T04:36:06.351Z,1025.97
2016-09-27T04:36:31.885Z,1025.96
2016-09-27T04:36:57.438Z,1025.98
2016-09-27T04:37:22.980Z,1025.95
2016-09-27T04:37:48.526Z,1026
2016-09-27T04:38:14.187Z,1025.99
2016-09-27T04:38:39.723Z,1025.99
2016-09-27T04:39:05.384Z,1026.02
2016-09-27T04:39:30.934Z,1026.06
2016-09-27T04:39:56.469Z,1026.02
2016-09-27T04:40:22.028Z,1026.04
2016-09-27T04:40:47.572Z,1026.03
2016-09-27T04:41:13.143Z,1026.02
2016-09-27T04:41:38.781Z,1026.02
2016-09-27T04:42:04.335Z,1026.03
2016-09-27T04:42:29.908Z,1026.04
2016-09-27T04:42:55.590Z,1026.04
2016-09-27T04:43:21.200Z,1026
2016-09-27T04:43:46.769Z,1026.04
2016-09-27T04:44:12.338Z,1026.06
2016-09-27T04:44:38.041Z,1026.04
2016-09-27T04:45:03.604Z,1026.02
2016-09-27T04:45:29.154Z,1026.06
2016-09-27T04:45:54.718Z,1026.05
2016-09-27T04:46:20.278Z,1026.02
2016-09-27T04:46:45.843Z,1026.05
2016-09-27T04:47:11.413Z,1026.05
2016-09-27T04:47:36.969Z,1026.07
2016-09-27T04:48:02.516Z,1026.09
2016-09-27T04:48:28.270Z,1026.08
2016-09-27T04:48:53.851Z,1026.11
2016-09-27T04:49:19.434Z,1026.08
2016-09-27T04:49:45.005Z,1026.1
2016-09-27T04:50:10.578Z,1026.08
2016-09-27T04:50:36.139Z,1026.08
2016-09-27T04:51:01.791Z,1026.05
2016-09-27T04:51:27.357Z,1026.05
2016-09-27T04:51:52.920Z,1026.06
2016-09-27T04:52:18.593Z,1026.12
2016-09-27T04:52:44.210Z,1026.08
2016-09-27T04:53:09.782Z,1026.08
2016-09-27T04:53:35.367Z,1026.07
2016-09-27T04:54:00.953Z,1026.06
2016-09-27T04:54:26.516Z,1026.08
2016-09-27T04:54:52.074Z,1026.09
2016-09-27T04:55:17.678Z,1026.05
2016-09-27T04:55:43.240Z,1026.05
2016-09-27T04:57:01.827Z,1026.05
2016-09-27T04:57:59.898Z,1026.07
2016-09-27T04:58:25.536Z,1026.05
2016-09-27T04:58:51.109Z,1026.06
2016-09-27T04:59:16.672Z,1026.05
2016-09-27T04:59:42.241Z,1026.07
2016-09-27T05:00:07.782Z,1026.05
2016-09-27T05:00:33.414Z,1026.06
2016-09-27T05:00:58.971Z,1026.1
2016-09-27T05:01:24.535Z,1026.07
2016-09-27T05:01:50.101Z,1026.08
2016-09-27T05:02:15.652Z,1026.07
2016-09-27T05:02:41.238Z,1026.05
2016-09-27T05:03:59.800Z,1026.12
2016-09-27T05:04:25.419Z,1026.08
2016-09-27T05:04:51.016Z,1026.09
2016-09-27T05:06:04.405Z,1026.11
2016-09-27T05:06:29.957Z,1026.12
2016-09-27T05:06:55.595Z,1026.12
2016-09-27T05:07:21.159Z,1026.13
2016-09-27T05:07:46.704Z,1026.1
2016-09-27T05:08:12.304Z,1026.14
2016-09-27T05:08:37.979Z,1026.15
2016-09-27T05:09:03.520Z,1026.17
2016-09-27T05:09:29.073Z,1026.14
2016-09-27T05:09:54.631Z,1026.18
2016-09-27T05:10:20.198Z,1026.18
2016-09-27T05:10:45.793Z,1026.13
2016-09-27T05:11:11.351Z,1026.14
2016-09-27T05:11:36.920Z,1026.13
2016-09-27T05:12:02.517Z,1026.14
2016-09-27T05:12:28.170Z,1026.13
2016-09-27T05:12:53.710Z,1026.1
2016-09-27T05:13:19.263Z,1026.11
2016-09-27T05:13:44.834Z,1026.13
2016-09-27T05:14:10.413Z,1026.09
2016-09-27T05:14:35.950Z,1026.11
2016-09-27T05:15:01.526Z,1026.03
2016-09-27T05:15:27.097Z,1026.09
2016-09-27T05:15:52.689Z,1026.07
2016-09-27T05:16:18.366Z,1026.11
2016-09-27T05:16:46.462Z,1026.11
2016-09-27T05:17:12.927Z,1026.13
2016-09-27T05:17:38.490Z,1026.09
2016-09-27T05:18:04.186Z,1026.09
2016-09-27T05:18:29.749Z,1026.13
2016-09-27T05:18:55.374Z,1026.12
2016-09-27T05:19:20.941Z,1026.15
2016-09-27T05:19:46.521Z,1026.13
2016-09-27T05:20:12.128Z,1026.13
2016-09-27T05:20:37.786Z,1026.14
2016-09-27T05:21:03.360Z,1026.13
2016-09-27T05:21:28.919Z,1026.11
2016-09-27T05:21:54.477Z,1026.12
2016-09-27T05:22:20.046Z,1026.15
2016-09-27T05:22:45.589Z,1026.13
2016-09-27T05:23:11.151Z,1026.09
2016-09-27T05:23:36.697Z,1026.11
2016-09-27T05:24:02.261Z,1026.13
2016-09-27T05:24:27.980Z,1026.13
2016-09-27T05:24:53.599Z,1026.1
2016-09-27T05:25:19.144Z,1026.13
2016-09-27T05:25:44.748Z,1026.08
2016-09-27T05:26:10.343Z,1026.14
2016-09-27T05:26:35.941Z,1026.13
2016-09-27T05:27:01.556Z,1026.16
2016-09-27T05:27:27.273Z,1026.16
2016-09-27T05:27:53.057Z,1026.16
2016-09-27T05:28:18.632Z,1026.16
2016-09-27T05:28:44.720Z,1026.2
2016-09-27T05:29:10.272Z,1026.15
2016-09-27T05:29:35.841Z,1026.21
2016-09-27T05:30:01.401Z,1026.21
2016-09-27T05:30:26.981Z,1026.21
2016-09-27T05:30:52.535Z,1026.24
2016-09-27T05:31:18.099Z,1026.18
2016-09-27T05:31:43.663Z,1026.19
2016-09-27T05:32:09.226Z,1026.2
2016-09-27T05:33:28.224Z,1026.23
2016-09-27T05:33:53.585Z,1026.23
2016-09-27T05:34:19.158Z,1026.28
2016-09-27T05:34:44.724Z,1026.24
2016-09-27T05:35:10.414Z,1026.28
2016-09-27T05:35:35.815Z,1026.26
2016-09-27T05:36:01.401Z,1026.27
2016-09-27T05:36:26.961Z,1026.26
2016-09-27T05:36:52.556Z,1026.3
2016-09-27T05:37:18.106Z,1026.3
2016-09-27T05:37:43.639Z,1026.29
2016-09-27T05:38:09.195Z,1026.28
2016-09-27T05:38:34.801Z,1026.29
2016-09-27T05:39:00.345Z,1026.28
2016-09-27T05:39:25.900Z,1026.26
2016-09-27T05:39:51.478Z,1026.26
2016-09-27T05:40:16.997Z,1026.27
2016-09-27T05:40:42.561Z,1026.32
2016-09-27T05:41:08.145Z,1026.33
2016-09-27T05:41:33.719Z,1026.31
2016-09-27T05:41:59.348Z,1026.29
2016-09-27T05:42:24.887Z,1026.3
2016-09-27T05:46:14.211Z,1026.66
2016-09-27T05:46:48.162Z,1026.66
2016-09-27T05:47:21.797Z,1026.64
2016-09-27T05:47:49.118Z,1026.6
2016-09-27T05:48:14.635Z,1026.61
2016-09-27T05:48:40.205Z,1026.59
2016-09-27T05:49:05.758Z,1026.57
2016-09-27T05:49:31.344Z,1026.57
2016-09-27T05:49:57.003Z,1026.51
2016-09-27T05:50:22.550Z,1026.52
2016-09-27T05:50:48.126Z,1026.52
2016-09-27T05:51:13.701Z,1026.54
2016-09-27T05:51:39.276Z,1026.57
2016-09-27T05:52:04.843Z,1026.52
2016-09-27T05:52:30.425Z,1026.52
2016-09-27T05:52:55.965Z,1026.53
2016-09-27T05:53:21.567Z,1026.52
2016-09-27T05:53:47.116Z,1026.47
2016-09-27T05:54:12.686Z,1026.49
2016-09-27T05:54:38.277Z,1026.47
2016-09-27T05:55:03.940Z,1026.46
2016-09-27T05:55:29.490Z,1026.44
2016-09-27T05:55:55.047Z,1026.45
2016-09-27T05:56:20.609Z,1026.45
2016-09-27T05:56:46.143Z,1026.47
2016-09-27T05:57:11.699Z,1026.48
2016-09-27T05:57:37.304Z,1026.44
2016-09-27T05:58:02.858Z,1026.49
2016-09-27T05:58:28.455Z,1026.5
2016-09-27T05:58:53.987Z,1026.47
2016-09-27T05:59:19.533Z,1026.48
2016-09-27T05:59:45.078Z,1026.52
2016-09-27T06:00:10.634Z,1026.53
2016-09-27T06:01:16.036Z,1026.52
2016-09-27T06:01:42.948Z,1026.52
2016-09-27T06:02:41.125Z,1026.51
2016-09-27T06:05:39.123Z,1026.49
2016-09-27T06:06:05.315Z,1026.49
2016-09-27T06:06:30.876Z,1026.49
2016-09-27T06:06:56.428Z,1026.46
2016-09-27T06:07:21.983Z,1026.47
2016-09-27T06:07:47.578Z,1026.49
2016-09-27T06:08:13.101Z,1026.5
2016-09-27T06:08:38.692Z,1026.48
2016-09-27T06:09:04.235Z,1026.49
2016-09-27T06:09:29.771Z,1026.53
2016-09-27T06:09:55.333Z,1026.55
2016-09-27T06:10:20.904Z,1026.54
2016-09-27T06:10:46.482Z,1026.52
2016-09-27T06:11:12.037Z,1026.55
2016-09-27T06:11:37.576Z,1026.56
2016-09-27T06:12:03.302Z,1026.55
2016-09-27T06:12:28.904Z,1026.55
2016-09-27T06:12:54.483Z,1026.57
2016-09-27T06:13:20.076Z,1026.54
2016-09-27T06:13:45.636Z,1026.56
2016-09-27T06:14:11.208Z,1026.51
2016-09-27T06:14:37.013Z,1026.58
2016-09-27T06:15:02.581Z,1026.54
2016-09-27T06:15:28.183Z,1026.54
2016-09-27T06:15:53.838Z,1026.57
2016-09-27T06:16:19.405Z,1026.59
2016-09-27T06:16:44.966Z,1026.56
2016-09-27T06:17:10.605Z,1026.52
2016-09-27T06:17:36.134Z,1026.5
2016-09-27T06:18:01.661Z,1026.54
2016-09-27T06:18:27.230Z,1026.53
2016-09-27T06:18:53.548Z,1026.54
2016-09-27T06:19:19.158Z,1026.53
2016-09-27T06:19:44.721Z,1026.51
2016-09-27T06:20:10.246Z,1026.51
2016-09-27T06:20:35.991Z,1026.5
2016-09-27T06:21:01.625Z,1026.51
2016-09-27T06:21:27.268Z,1026.52
2016-09-27T06:21:52.763Z,1026.52
2016-09-27T06:22:18.347Z,1026.56
2016-09-27T06:22:43.951Z,1026.54
2016-09-27T06:23:09.491Z,1026.5
2016-09-27T06:23:35.063Z,1026.56
2016-09-27T06:24:00.625Z,1026.55
2016-09-27T06:25:48.398Z,1026.52
2016-09-27T06:27:39.372Z,1026.56
2016-09-27T06:28:29.464Z,1026.54
2016-09-27T06:28:55.929Z,1026.55
2016-09-27T06:29:21.489Z,1026.57
2016-09-27T06:29:47.035Z,1026.57
2016-09-27T06:30:12.573Z,1026.55
2016-09-27T06:30:38.193Z,1026.58
2016-09-27T06:31:03.768Z,1026.55
2016-09-27T06:31:29.326Z,1026.6
2016-09-27T06:31:54.939Z,1026.56
2016-09-27T06:32:20.573Z,1026.6
2016-09-27T06:32:46.943Z,1026.57
2016-09-27T06:33:12.487Z,1026.61
2016-09-27T06:33:38.048Z,1026.59
2016-09-27T06:34:03.680Z,1026.56
2016-09-27T06:34:29.304Z,1026.6
2016-09-27T06:34:54.852Z,1026.59
2016-09-27T06:35:20.412Z,1026.62
2016-09-27T06:35:45.982Z,1026.64
2016-09-27T06:36:11.537Z,1026.66
2016-09-27T06:36:37.095Z,1026.64
2016-09-27T06:37:02.630Z,1026.64
2016-09-27T06:37:28.235Z,1026.69
2016-09-27T06:37:53.829Z,1026.65
2016-09-27T06:38:19.390Z,1026.69
2016-09-27T06:38:44.957Z,1026.67
2016-09-27T06:39:10.561Z,1026.65
2016-09-27T06:39:36.142Z,1026.64
2016-09-27T06:40:01.889Z,1026.66
2016-09-27T06:40:27.473Z,1026.64
2016-09-27T06:40:53.085Z,1026.64
2016-09-27T06:41:18.629Z,1026.67
2016-09-27T06:41:44.196Z,1026.68
2016-09-27T06:42:09.923Z,1026.64
2016-09-27T06:42:35.471Z,1026.63
2016-09-27T06:43:01.030Z,1026.63
2016-09-27T06:43:26.688Z,1026.67
2016-09-27T06:43:52.271Z,1026.66
2016-09-27T06:44:17.817Z,1026.68
2016-09-27T06:44:43.372Z,1026.7
2016-09-27T06:45:09.005Z,1026.68
2016-09-27T06:45:34.534Z,1026.65
2016-09-27T06:46:00.100Z,1026.7
2016-09-27T06:46:25.662Z,1026.72
2016-09-27T06:46:51.233Z,1026.68
2016-09-27T06:47:16.876Z,1026.73
2016-09-27T06:47:42.534Z,1026.73
2016-09-27T06:48:08.075Z,1026.73
2016-09-27T06:48:33.747Z,1026.77
2016-09-27T06:48:59.329Z,1026.77
2016-09-27T06:49:24.859Z,1026.76
2016-09-27T06:49:50.495Z,1026.78
2016-09-27T06:50:16.053Z,1026.82
2016-09-27T06:50:41.636Z,1026.77
2016-09-27T06:51:07.261Z,1026.78
2016-09-27T06:51:32.819Z,1026.79
2016-09-27T06:51:58.367Z,1026.76
2016-09-27T06:52:23.937Z,1026.81
2016-09-27T06:52:49.555Z,1026.78
2016-09-27T06:53:15.975Z,1026.78
2016-09-27T06:53:41.538Z,1026.83
2016-09-27T06:54:07.096Z,1026.84
2016-09-27T06:54:32.682Z,1026.85
2016-09-27T06:54:58.244Z,1026.82
2016-09-27T06:55:23.797Z,1026.81
2016-09-27T06:55:49.334Z,1026.86
2016-09-27T06:56:15.042Z,1026.8
2016-09-27T06:56:40.564Z,1026.83
2016-09-27T06:57:06.128Z,1026.86
2016-09-27T06:57:31.695Z,1026.86
2016-09-27T06:57:57.242Z,1026.82
2016-09-27T06:58:22.880Z,1026.82
2016-09-27T06:58:48.460Z,1026.82
2016-09-27T06:59:14.136Z,1026.79
2016-09-27T06:59:39.768Z,1026.75
2016-09-27T07:00:05.352Z,1026.79
2016-09-27T07:00:30.942Z,1026.76
2016-09-27T07:00:56.482Z,1026.77
2016-09-27T07:01:22.061Z,1026.76
2016-09-27T07:01:47.625Z,1026.77
2016-09-27T07:02:13.181Z,1026.78
2016-09-27T07:02:39.367Z,1026.79
2016-09-27T07:03:04.916Z,1026.75
2016-09-27T07:03:30.460Z,1026.79
2016-09-27T07:03:56.022Z,1026.8
2016-09-27T07:04:21.564Z,1026.77
2016-09-27T07:04:47.242Z,1026.75
2016-09-27T07:06:03.162Z,1026.78
2016-09-27T07:06:28.703Z,1026.77
2016-09-27T07:06:54.305Z,1026.75
2016-09-27T07:08:02.625Z,1026.84
2016-09-27T07:08:28.171Z,1026.75
2016-09-27T07:08:53.750Z,1026.77
2016-09-27T07:09:19.386Z,1026.75
2016-09-27T07:09:47.227Z,1026.78
2016-09-27T07:10:12.781Z,1026.76
2016-09-27T07:10:38.313Z,1026.77
2016-09-27T07:11:03.964Z,1026.74
2016-09-27T07:11:29.560Z,1026.78
2016-09-27T07:11:55.184Z,1026.8
2016-09-27T07:12:20.725Z,1026.78
2016-09-27T07:12:46.384Z,1026.79
2016-09-27T07:13:11.908Z,1026.8
2016-09-27T07:13:37.473Z,1026.81
2016-09-27T07:14:03.005Z,1026.85
2016-09-27T07:15:06.314Z,1026.83
2016-09-27T07:15:31.879Z,1026.83
2016-09-27T07:16:38.223Z,1026.76
2016-09-27T07:17:04.526Z,1026.85
2016-09-27T07:17:30.065Z,1026.87
2016-09-27T07:17:55.639Z,1026.88
2016-09-27T07:18:21.200Z,1026.9
2016-09-27T07:19:15.880Z,1026.88
2016-09-27T07:19:41.249Z,1026.85
2016-09-27T07:20:06.817Z,1026.89
2016-09-27T07:20:32.353Z,1026.89
2016-09-27T07:20:57.934Z,1026.9
2016-09-27T07:21:23.547Z,1026.86
2016-09-27T07:21:49.086Z,1026.87
2016-09-27T07:22:14.649Z,1026.84
2016-09-27T07:22:40.219Z,1026.85
2016-09-27T07:23:05.767Z,1026.89
2016-09-27T07:23:31.327Z,1026.84
2016-09-27T07:23:56.869Z,1026.8
2016-09-27T07:24:23.260Z,1026.81
2016-09-27T07:25:25.668Z,1026.81
2016-09-27T07:25:57.483Z,1026.85
2016-09-27T07:26:29.068Z,1026.81
2016-09-27T07:27:42.872Z,1026.88
2016-09-27T07:28:12.927Z,1026.87
2016-09-27T07:28:39.732Z,1026.83
2016-09-27T07:29:04.975Z,1026.89
2016-09-27T07:30:05.215Z,1026.86
2016-09-27T07:34:15.181Z,1026.78
2016-09-27T07:34:40.724Z,1026.75
2016-09-27T07:35:06.275Z,1026.79
2016-09-27T07:38:08.405Z,1026.81
2016-09-27T07:39:25.659Z,1026.83
2016-09-27T07:39:53.679Z,1026.86
2016-09-27T07:40:55.131Z,1026.88
2016-09-27T07:41:20.231Z,1026.9
2016-09-27T07:41:47.457Z,1026.94
2016-09-27T07:43:57.361Z,1026.95
2016-09-27T07:44:29.039Z,1026.93
2016-09-27T07:44:59.185Z,1026.9
2016-09-27T07:45:24.770Z,1026.95
2016-09-27T07:45:50.343Z,1027
2016-09-27T07:46:16.012Z,1026.98
2016-09-27T07:46:43.992Z,1026.96
2016-09-27T07:47:45.949Z,1027
2016-09-27T07:48:17.655Z,1026.98
2016-09-27T07:48:49.362Z,1027
2016-09-27T07:49:20.554Z,1027.04
2016-09-27T07:50:23.046Z,1026.99
2016-09-27T07:50:53.851Z,1027.03
2016-09-27T07:51:56.717Z,1026.98
2016-09-27T07:55:11.786Z,1027.02
2016-09-27T07:55:37.149Z,1027.03
2016-09-27T07:56:09.502Z,1027.02
2016-09-27T07:58:55.733Z,1027.02
2016-09-27T07:59:27.389Z,1027.06
2016-09-27T08:00:29.573Z,1027.04
2016-09-27T08:02:27.181Z,1027.06
2016-09-27T08:04:25.604Z,1027.08
2016-09-27T08:07:22.950Z,1027.04
2016-09-27T08:07:48.451Z,1027.04
2016-09-27T08:08:20.185Z,1027.04
2016-09-27T08:10:12.821Z,1027.06
2016-09-27T08:10:45.107Z,1027.03
2016-09-27T08:12:14.270Z,1027.03
2016-09-27T08:13:16.456Z,1027.06
2016-09-27T08:16:59.951Z,1027.05
2016-09-27T08:19:47.958Z,1027.06
2016-09-27T08:21:17.580Z,1027.08
2016-09-27T08:21:51.049Z,1027.08
2016-09-27T08:22:25.048Z,1027.08
2016-09-27T08:22:58.623Z,1027.07
2016-09-27T08:23:32.148Z,1027.04
2016-09-27T08:24:05.706Z,1027.07
2016-09-27T08:24:39.313Z,1027.07
2016-09-27T08:25:12.790Z,1027.08
2016-09-27T08:25:46.600Z,1027.06
2016-09-27T08:27:02.808Z,1027.05
2016-09-27T08:27:36.236Z,1027.03
2016-09-27T08:28:10.127Z,1027.06
2016-09-27T08:28:43.662Z,1027.05
2016-09-27T08:29:17.127Z,1027.04
2016-09-27T08:30:33.353Z,1027.05
2016-09-27T08:31:06.953Z,1027.05
2016-09-27T08:31:40.015Z,1027.03
2016-09-27T08:32:13.515Z,1027.01
2016-09-27T08:32:47.003Z,1027.01
2016-09-27T08:33:20.528Z,1027.04
2016-09-27T08:33:53.976Z,1027.04
2016-09-27T08:34:27.430Z,1027.01
2016-09-27T08:35:00.820Z,1027.05
2016-09-27T08:35:34.261Z,1027.04
2016-09-27T08:36:50.236Z,1027.03
2016-09-27T08:38:06.128Z,1027.02
2016-09-27T08:38:39.283Z,1026.98
2016-09-27T08:39:12.471Z,1026.95
2016-09-27T08:39:45.408Z,1026.98
2016-09-27T08:40:18.437Z,1026.98
2016-09-27T08:40:51.851Z,1026.96
2016-09-27T08:41:24.879Z,1026.96
2016-09-27T08:41:58.018Z,1026.98
2016-09-27T08:42:31.414Z,1026.99
2016-09-27T08:43:04.620Z,1026.96
2016-09-27T08:43:37.804Z,1026.96
2016-09-27T08:44:10.920Z,1026.99
2016-09-27T08:44:44.389Z,1026.99
2016-09-27T08:46:00.738Z,1027
2016-09-27T08:46:34.074Z,1026.99
2016-09-27T08:47:07.259Z,1027.01
2016-09-27T08:47:40.319Z,1027.06
2016-09-27T08:48:13.789Z,1026.95
2016-09-27T08:48:46.772Z,1026.99
2016-09-27T08:49:20.645Z,1026.93
2016-09-27T08:49:53.866Z,1027
2016-09-27T08:51:22.665Z,1027.01
2016-09-27T08:52:26.191Z,1026.96
2016-09-27T08:53:42.239Z,1027.04
2016-09-27T08:54:15.583Z,1026.99
2016-09-27T08:54:48.451Z,1026.97
2016-09-27T08:55:51.964Z,1027.01
2016-09-27T08:57:03.533Z,1026.97
2016-09-27T08:59:09.193Z,1026.96
2016-09-27T08:59:42.657Z,1026.96
2016-09-27T09:00:16.082Z,1026.95
2016-09-27T09:00:49.822Z,1026.95
2016-09-27T09:01:23.418Z,1026.95
2016-09-27T09:02:39.561Z,1026.96
2016-09-27T09:03:12.867Z,1026.98
2016-09-27T09:03:45.663Z,1027
2016-09-27T09:04:49.153Z,1027.02
2016-09-27T09:05:58.890Z,1026.97
2016-09-27T09:07:29.143Z,1027
2016-09-27T09:08:58.510Z,1026.98
2016-09-27T09:10:14.280Z,1027
2016-09-27T09:11:36.467Z,1026.97
2016-09-27T09:13:56.627Z,1026.96
2016-09-27T09:14:28.874Z,1027.01
2016-09-27T09:14:57.411Z,1026.98
2016-09-27T09:15:30.820Z,1026.98
2016-09-27T09:16:03.177Z,1026.96
2016-09-27T09:17:08.646Z,1026.99
2016-09-27T09:17:42.080Z,1027.01
2016-09-27T09:18:15.455Z,1027.03
2016-09-27T09:21:59.694Z,1027.04
2016-09-27T09:22:32.335Z,1027.03
2016-09-27T09:25:20.752Z,1027.08
2016-09-27T09:26:24.105Z,1027.08
2016-09-27T09:26:57.200Z,1027.1
2016-09-27T09:28:20.268Z,1027.18
2016-09-27T09:30:28.540Z,1027.21
2016-09-27T09:31:49.971Z,1027.26
2016-09-27T09:32:22.833Z,1027.28
2016-09-27T09:32:55.371Z,1027.29
2016-09-27T09:33:28.264Z,1027.26
2016-09-27T09:34:00.715Z,1027.32
2016-09-27T09:35:15.191Z,1027.3
2016-09-27T09:39:46.761Z,1027.35
2016-09-27T09:40:49.801Z,1027.3
2016-09-27T09:44:50.145Z,1027.28
2016-09-27T09:45:58.180Z,1027.28
2016-09-27T09:46:28.742Z,1027.27
2016-09-27T09:49:06.746Z,1027.2
2016-09-27T09:49:32.407Z,1027.19
2016-09-27T09:49:57.951Z,1027.22
2016-09-27T09:50:26.665Z,1027.22
2016-09-27T09:51:25.399Z,1027.26
2016-09-27T09:51:55.720Z,1027.22
2016-09-27T09:52:21.582Z,1027.19
2016-09-27T09:52:48.861Z,1027.24
2016-09-27T09:53:16.952Z,1027.23
2016-09-27T09:53:44.472Z,1027.21
2016-09-27T09:54:51.786Z,1027.24
2016-09-27T09:57:46.953Z,1027.31
2016-09-27T09:58:13.254Z,1027.27
2016-09-27T09:58:38.817Z,1027.28
2016-09-27T09:59:04.362Z,1027.3
2016-09-27T09:59:30.031Z,1027.32
2016-09-27T09:59:55.604Z,1027.3
2016-09-27T10:00:21.162Z,1027.3
2016-09-27T10:00:46.826Z,1027.3
2016-09-27T10:01:12.499Z,1027.32
2016-09-27T10:01:37.968Z,1027.32
2016-09-27T10:02:03.608Z,1027.34
2016-09-27T10:02:29.240Z,1027.32